Hovedside
METAR-TAF:

METAR-TAF

Lufthavner :

Antakya, Tyrkia

breddegrad: 36-21-46N, lengdegrad: 36-16-56E, høyde over havet: 1950 m

Gjeldene værobservasjon

Denne rapporten ble laget for 1 time og 44 minutter siden, klokken 18:50 UTC
Vind 3 kt fra Sør
Temperatur 13°C
Luftfuktighet 100%
Trykk 1018 hPa
Sikt: 6000 m
Brutte skyer i en høyde av 4000 ft

METAR: LTDA 301850Z 19003KT 6000 BKN040 13/13 Q1018 NOSIG

Tid: 23:34 (20:34 UTC)

Varsel

Denne rapporten ble laget for 3 timer og 54 minutter siden, klokken 16:40 UTC
Varsel gyldig fra 30. klokken 18 UTC til 01. klokken 03 UTC
Vind 2 kt fra skiftende retning
Sikt: 8000 m
Brutte skyer i en høyde av 3500 ft
Blir
fra 30. klokken 22 UTC til 30. klokken 24 UTC
Sikt: 4000 m
dis

TAF: LTDA 301640Z 3018/0103 VRB02KT 8000 BKN035 BECMG 3022/3024 4000 BR

Værobservasjoner og værvarsel for over 4000 flyplasser (METAR- og TAF-rapporter).

Tilgjengelige stasjoner er representert av de røde og gule prikkene på kartet.

Hold musepekeren over prikken for å se navnet på stasjonen.

Klikk så for å se værobservasjoner og -varsler.

For å forandre kartet kan du klikke på den grønne knappen med svart kryss for å zoome inn, på den grønne knappen med strek for å zoome ut, eller på de grønne pilene for å se tilstøtende kart.


METAR-TAF: